createdAt,value
2022-11-19T00:02:36.691Z,70.95
2022-11-19T00:05:04.078Z,71.24
2022-11-19T00:38:03.616Z,71.49
2022-11-19T00:59:21.620Z,71.47
2022-11-19T01:10:38.672Z,71.52
2022-11-19T01:25:55.614Z,71.80
2022-11-19T01:28:22.865Z,71.91
2022-11-19T01:30:50.141Z,72.47
2022-11-19T01:33:17.610Z,72.24
2022-11-19T01:35:44.732Z,72.59
2022-11-19T01:38:11.925Z,72.53
2022-11-19T01:40:44.310Z,72.48
2022-11-19T01:43:13.030Z,72.29
2022-11-19T01:45:45.579Z,72.25
2022-11-19T01:48:23.126Z,71.82
2022-11-19T01:50:55.458Z,72.43
2022-11-19T01:53:26.408Z,72.30
2022-11-19T01:55:53.927Z,72.45
2022-11-19T01:58:23.599Z,72.61
2022-11-19T02:00:50.775Z,72.48
2022-11-19T02:03:19.008Z,72.76
2022-11-19T02:05:46.518Z,72.51
2022-11-19T02:08:46.673Z,72.70
2022-11-19T02:11:25.913Z,72.65
2022-11-19T02:14:12.556Z,72.75
2022-11-19T02:16:51.435Z,72.64
2022-11-19T02:19:35.027Z,72.84
2022-11-19T02:22:21.122Z,72.38
2022-11-19T02:24:56.002Z,72.03
2022-11-19T02:27:55.752Z,72.50
2022-11-19T02:30:22.944Z,72.33
2022-11-19T02:33:16.382Z,72.94
2022-11-19T02:36:00.006Z,73.26
2022-11-19T02:38:29.272Z,73.40
2022-11-19T02:40:59.428Z,73.52
2022-11-19T02:43:33.710Z,73.24
2022-11-19T02:46:09.666Z,73.26
2022-11-19T02:48:46.814Z,73.46
2022-11-19T02:51:14.738Z,73.25
2022-11-19T02:53:41.869Z,72.93
2022-11-19T02:56:35.371Z,73.08
2022-11-19T02:59:38.359Z,72.63
2022-11-19T03:02:25.528Z,72.97
2022-11-19T03:04:53.244Z,72.99
2022-11-19T03:07:21.625Z,73.05
2022-11-19T03:09:53.242Z,73.21
2022-11-19T03:12:38.664Z,72.90
2022-11-19T03:15:29.390Z,72.65
2022-11-19T03:17:59.400Z,72.40
2022-11-19T03:20:37.184Z,72.92
2022-11-19T03:23:43.812Z,72.94
2022-11-19T03:26:17.660Z,72.82
2022-11-19T03:28:46.541Z,72.87
2022-11-19T03:31:15.253Z,72.97
2022-11-19T03:33:44.896Z,72.84
2022-11-19T03:36:14.910Z,72.76
2022-11-19T03:38:44.621Z,72.82
2022-11-19T03:41:13.883Z,72.57
2022-11-19T03:43:44.559Z,72.90
2022-11-19T03:46:15.356Z,72.55
2022-11-19T03:48:45.498Z,72.63
2022-11-19T03:51:16.141Z,73.31
2022-11-19T03:53:43.345Z,73.06
2022-11-19T03:56:17.575Z,73.13
2022-11-19T03:58:47.364Z,73.04
2022-11-19T04:01:14.546Z,73.24
2022-11-19T04:04:01.642Z,73.36
2022-11-19T04:06:28.802Z,73.39
2022-11-19T04:08:56.076Z,73.00
2022-11-19T04:13:49.329Z,73.56
2022-11-19T04:16:16.557Z,73.76
2022-11-19T04:18:43.717Z,73.48
2022-11-19T04:21:10.894Z,73.24
2022-11-19T04:23:38.098Z,73.46
2022-11-19T04:26:05.520Z,74.01
2022-11-19T04:32:46.358Z,73.91
2022-11-19T04:35:14.219Z,73.89
2022-11-19T04:37:46.421Z,73.57
2022-11-19T04:40:15.491Z,73.93
2022-11-19T04:42:43.159Z,74.08
2022-11-19T04:45:11.820Z,74.19
2022-11-19T04:47:40.101Z,74.09
2022-11-19T04:50:11.880Z,73.87
2022-11-19T04:52:50.709Z,73.97
2022-11-19T04:55:24.134Z,74.17
2022-11-19T04:57:53.362Z,73.86
2022-11-19T05:00:21.630Z,73.50
2022-11-19T05:02:55.025Z,74.24
2022-11-19T05:05:22.818Z,74.35
2022-11-19T05:08:02.149Z,74.45
2022-11-19T05:10:36.695Z,74.79
2022-11-19T05:13:04.227Z,74.88
2022-11-19T05:15:32.610Z,74.75
2022-11-19T05:18:00.188Z,74.66
2022-11-19T05:42:56.064Z,75.36
2022-11-19T05:58:47.270Z,75.46
2022-11-19T06:14:27.728Z,75.66
2022-11-19T07:00:51.478Z,74.46
2022-11-19T07:11:56.199Z,75.00
2022-11-19T07:14:23.375Z,74.96
2022-11-19T07:16:50.849Z,75.03
2022-11-19T07:19:18.365Z,74.88
2022-11-19T07:21:45.762Z,74.06
2022-11-19T07:24:16.108Z,74.48
2022-11-19T07:31:24.620Z,74.60
2022-11-19T07:33:52.037Z,74.78
2022-11-19T07:36:19.225Z,74.54
2022-11-19T07:38:47.066Z,74.78
2022-11-19T07:41:32.833Z,74.46
2022-11-19T07:43:59.983Z,74.32
2022-11-19T07:46:27.214Z,74.31
2022-11-19T07:48:55.335Z,74.28
2022-11-19T07:51:23.253Z,73.80
2022-11-19T07:53:50.910Z,74.06
2022-11-19T07:56:19.085Z,73.80
2022-11-19T07:58:46.753Z,73.91
2022-11-19T08:01:19.575Z,73.41
2022-11-19T08:03:50.751Z,73.30
2022-11-19T08:06:20.326Z,73.70
2022-11-19T08:13:09.893Z,73.07
2022-11-19T08:34:04.800Z,72.02
2022-11-19T08:36:32.004Z,71.70
2022-11-19T08:56:17.893Z,69.06
2022-11-19T08:58:45.516Z,69.71
2022-11-19T09:01:14.564Z,68.78
2022-11-19T09:03:41.846Z,68.83
2022-11-19T09:06:09.526Z,67.73
2022-11-19T09:08:36.721Z,67.01
2022-11-19T09:11:12.863Z,65.75
2022-11-19T09:13:41.349Z,65.64
2022-11-19T09:16:10.007Z,65.32
2022-11-19T09:18:39.188Z,65.81
2022-11-19T09:21:07.827Z,66.21
2022-11-19T09:23:35.061Z,65.74
2022-11-19T10:04:48.067Z,63.05
2022-11-19T10:11:59.947Z,61.51
2022-11-19T10:28:43.714Z,59.46
2022-11-19T10:39:51.603Z,59.54
2022-11-19T10:55:38.127Z,58.17
2022-11-19T10:58:14.311Z,58.70
2022-11-19T11:00:42.038Z,58.38
2022-11-19T11:03:32.647Z,58.98
2022-11-19T11:06:02.630Z,58.61
2022-11-19T11:08:29.961Z,58.63
2022-11-19T11:10:57.880Z,58.44
2022-11-19T11:13:52.800Z,58.83
2022-11-19T11:16:42.734Z,59.20
2022-11-19T11:19:20.581Z,59.68
2022-11-19T11:21:52.432Z,59.81
2022-11-19T11:24:19.621Z,60.40
2022-11-19T11:26:46.818Z,61.17
2022-11-19T11:29:14.004Z,61.50
2022-11-19T11:31:43.668Z,61.82
2022-11-19T11:34:30.272Z,62.63
2022-11-19T11:37:00.273Z,62.74
2022-11-19T11:39:31.207Z,63.18
2022-11-19T11:42:05.973Z,62.56
2022-11-19T11:44:36.670Z,62.74
2022-11-19T11:47:11.588Z,62.24
2022-11-19T11:49:41.494Z,62.10
2022-11-19T11:52:11.703Z,60.51
2022-11-19T11:55:13.128Z,59.65
2022-11-19T11:57:59.318Z,58.83
2022-11-19T12:00:39.467Z,58.95
2022-11-19T12:03:07.972Z,58.74
2022-11-19T12:05:49.978Z,59.24
2022-11-19T12:08:27.224Z,58.72
2022-11-19T12:11:17.994Z,58.47
2022-11-19T12:13:55.491Z,59.38
2022-11-19T12:16:50.127Z,60.88
2022-11-19T12:19:26.419Z,61.21
2022-11-19T12:22:09.833Z,62.92
2022-11-19T12:24:57.893Z,64.10
2022-11-19T12:27:38.593Z,65.14
2022-11-19T12:30:19.117Z,65.38
2022-11-19T12:33:08.363Z,66.05
2022-11-19T12:35:49.627Z,66.66
2022-11-19T12:38:20.718Z,66.85
2022-11-19T12:40:58.834Z,67.45
2022-11-19T12:43:47.893Z,67.32
2022-11-19T12:46:32.857Z,67.38
2022-11-19T13:10:38.458Z,73.64
2022-11-19T13:47:58.141Z,80.30
2022-11-19T13:50:37.505Z,80.98
2022-11-19T13:53:13.983Z,81.33
2022-11-19T13:55:42.226Z,82.21
2022-11-19T13:58:18.670Z,82.99
2022-11-19T14:01:18.144Z,83.54
2022-11-19T14:30:19.800Z,85.99
2022-11-19T14:37:23.594Z,88.47
2022-11-19T14:53:18.713Z,90.43
2022-11-19T15:04:29.594Z,91.87
2022-11-19T16:41:00.722Z,99.86
2022-11-19T16:52:48.735Z,99.90
2022-11-19T17:44:31.863Z,100.00
2022-11-19T17:47:24.584Z,100.00
2022-11-19T18:02:49.319Z,100.00
2022-11-19T18:10:01.079Z,100.00
2022-11-19T18:12:34.185Z,100.00
2022-11-19T18:15:35.767Z,100.00
2022-11-19T18:26:37.153Z,100.00
2022-11-19T18:42:20.733Z,100.00
2022-11-19T18:44:50.668Z,100.00
2022-11-19T18:47:18.833Z,100.00
2022-11-19T18:49:45.972Z,100.00
2022-11-19T19:14:18.665Z,100.00
2022-11-19T19:25:23.486Z,100.00
2022-11-19T19:37:03.114Z,100.00
2022-11-19T19:39:33.434Z,100.00
2022-11-19T19:55:36.377Z,100.00
2022-11-19T20:06:50.233Z,100.00
2022-11-19T20:17:29.949Z,100.00
2022-11-19T20:19:56.859Z,100.00
2022-11-19T20:22:24.064Z,100.00
2022-11-19T20:24:51.249Z,100.00
2022-11-19T20:27:18.502Z,100.00
2022-11-19T20:29:45.779Z,100.00
2022-11-19T20:32:13.023Z,100.00
2022-11-19T20:34:41.913Z,100.00
2022-11-19T20:37:09.165Z,100.00
2022-11-19T20:39:36.748Z,100.00
2022-11-19T20:42:22.672Z,100.00
2022-11-19T20:44:49.996Z,100.00
2022-11-19T20:47:17.153Z,100.00
2022-11-19T20:49:44.502Z,100.00
2022-11-19T20:52:13.190Z,100.00
2022-11-19T21:11:33.086Z,100.00
2022-11-19T21:22:38.585Z,100.00
2022-11-19T21:56:01.299Z,100.00
2022-11-19T22:20:04.943Z,100.00
2022-11-19T22:27:24.514Z,100.00
2022-11-19T22:43:22.916Z,100.00
2022-11-19T22:45:50.635Z,100.00
2022-11-19T23:15:04.003Z,100.00
2022-11-19T23:26:24.849Z,100.00
2022-11-19T23:54:38.682Z,100.00
